Clover Valley, Nevada Weather observations

Data are for 10 minute period ending at time listed.
 Day   Time   Solar   Ave.   Ave.  Ave.  Vector  Max.   Baro.   Total    
  of    of     Rad.   Air    Rel.  Wind   Wind   Wind  Press.  Precip.   
Year   Day            Temp.  Hum.  Speed  Dir.   Gust                    
2014   (PST)  Kw/m2    F      %     mph   deg.    mph    mb.     in.     
-------------------------------------------------------------------------
 239    0:00   0.00   48.9    94    3.4   243     5.0   831.3    0.00 
 239    0:10   0.00   48.4    94    2.3   238     3.4   831.2    0.00 
 239    0:20   0.00   48.8    95    3.1   263     4.2   831.1    0.00 
 239    0:30   0.00   48.5    94    2.3   286     3.3   831.2    0.00 
 239    0:40   0.00   48.6    95    2.3   352     3.5   831.4    0.00 
 239    0:50   0.00   48.6    95    1.4    11     2.9   831.3    0.00 
 239    1:00   0.00   48.1    95    2.7    49     4.5   831.3    0.00 
 239    1:10   0.00   48.1    96    3.5    46     5.1   831.3    0.00 
 239    1:20   0.00   48.0    96    3.4    31     4.2   831.4    0.00 
 239    1:30   0.00   48.0    96    2.6    24     4.2   831.3    0.00 
 239    1:40   0.00   48.3    96    3.3   350     4.5   831.4    0.00 
 239    1:50   0.00   48.1    96    3.5   344     5.0   831.4    0.00 
 239    2:00   0.00   47.5    96    3.4   357     4.3   831.4    0.00 
 239    2:10   0.00   47.5    96    2.1   327     3.5   831.5    0.00 
 239    2:20   0.00   47.4    96    2.0   326     4.1   831.4    0.00 
 239    2:30   0.00   47.4    96    4.4   316     5.9   831.4    0.00 
 239    2:40   0.00   47.1    95    3.3   323     4.6   831.4    0.00 
 239    2:50   0.00   47.3    95    2.1   333     2.9   831.3    0.00 
 239    3:00   0.00   47.3    95    3.5   346     5.3   831.4    0.00 
 239    3:10   0.00   47.7    95    3.8     8     5.3   831.5    0.00 
 239    3:20   0.00   47.5    95    4.2     7     5.9   831.6    0.00 
 239    3:30   0.00   46.8    94    3.3    18     5.1   831.5    0.00 
 239    3:40   0.00   46.1    94    4.0   284     6.5   831.5    0.00 
 239    3:50   0.00   45.4    94    4.4   291     5.8   831.5    0.00 
 239    4:00   0.00   45.1    94    4.0   335     5.3   831.5    0.00 
 239    4:10   0.00   45.5    93    2.1   341     2.6   831.5    0.00 
 239    4:20   0.00   45.4    93    2.1     0     2.8   831.6    0.00 
 239    4:30   0.00   44.5    93    2.9   343     4.3   831.7    0.00 
 239    4:40   0.00   44.2    93    2.1   346     3.7   831.9    0.00 
 239    4:50   0.00   43.9    92    2.3   351     3.4   832.0    0.00 
 239    5:00   0.00   43.0    93    2.9    31     3.6   832.2    0.00 
 239    5:10   0.01   42.8    93    2.7   331     3.7   832.2    0.00 
 239    5:20   0.01   42.2    93    3.2   286     5.6   832.3    0.00 
 239    5:30   0.05   42.9    94    2.8   316     3.4   832.4    0.00 
 239    5:40   0.08   44.3    93    1.4   339     3.4   832.5    0.00 
 239    5:50   0.11   45.7    91    1.2    31     2.6   832.6    0.00 
 239    6:00   0.13   46.9    90    1.7    20     3.0   832.6    0.00 
 239    6:10   0.16   48.0    89    1.7    33     2.4   832.7    0.00 
 239    6:20   0.18   49.4    88    0.4     4     1.6   832.8    0.00 
 239    6:30   0.21   51.3    85    1.6   251     2.9   832.8    0.00 
 239    6:40   0.24   50.9    87    3.0   270     4.4   832.9    0.00 
 239    6:50   0.27   51.1    87    2.8   265     4.3   832.9    0.00 
 239    7:00   0.30   53.0    85    0.8   276     2.4   833.1    0.00 
 239    7:10   0.33   54.0    82    0.8   328     1.8   833.2    0.00 
 239    7:20   0.32   54.8    80    1.4    43     2.7   833.3    0.00 
 239    7:30   0.38   55.6    80    0.9   130     2.4   833.3    0.00 
 239    7:40   0.43   57.5    77    0.9   113     2.5   833.5    0.00 
 239    7:50   0.46   56.9    77    1.3   203     2.9   833.7    0.00 
 239    8:00   0.36   58.2    75    1.3   247     3.1   833.7    0.00 
 239    8:10   0.20   59.5    71    0.5   350     2.0   833.8    0.00 
 239    8:20   0.02   60.6    68    0.9   231     2.8   833.9    0.00 
 239    8:30   0.51   61.5    65    1.2   358     3.1   834.0    0.00 
 239    8:40   0.60   61.7    64    1.0    69     3.4   834.0    0.00 
 239    8:50   0.64   61.1    65    2.6    84     4.8   834.0    0.00 
 239    9:00   0.66   61.9    63    1.5   123     4.2   834.0    0.00 
 239    9:10   0.68   63.1    60    2.0   118     4.2   834.0    0.00 
 239    9:20   0.70   63.6    57    1.9    70     3.9   834.0    0.00 
 239    9:30   0.70   63.5    58    2.4    68     4.3   833.9    0.00 
 239    9:40   0.75   64.3    56    1.4    26     4.2   833.9    0.00 
 239    9:50   0.76   65.5    53    2.3   110     6.2   833.9    0.00 
 239   10:00   0.78   65.9    51    1.8    95     4.3   833.8    0.00 
 239   10:10   0.80   66.3    50    3.2   106     6.0   833.8    0.00 
 239   10:20   0.73   67.1    47    1.6   169     4.7   833.8    0.00 
 239   10:30   0.67   67.5    48    1.7   134     5.2   833.6    0.00 
 239   10:40   0.84   68.3    48    2.3    82     5.3   833.6    0.00 
 239   10:50   0.85   68.4    46    2.4   343     5.1   833.4    0.00 
 239   11:00   0.62   68.7    44    2.0   312     4.2   833.3    0.00 
 239   11:10   0.74   68.8    46    2.4    25     6.1   833.2    0.00 
 239   11:20   0.64   69.8    42    1.1    62     2.9   833.1    0.00 
 239   11:30   0.87   69.8    42    1.2    32     3.4   833.1    0.00 
 239   11:40   0.87   70.4    40    1.5   324     4.1   833.0    0.00 
 239   11:50   0.88   69.8    41    2.0    76     5.7   832.9    0.00 
 239   12:00   0.88   70.7    43    2.2    58     4.8   832.8    0.00 
 239   12:10   0.87   70.8    42    2.8    60     6.1   832.7    0.00 
 239   12:20   0.87   71.3    38    1.4    27     5.3   832.7    0.00 
 239   12:30   0.87   72.1    38    2.0   133     4.5   832.7    0.00 
 239   12:40   0.86   72.2    40    3.0   130     7.2   832.6    0.00 
 239   12:50   0.86   72.1    42    4.8   144     8.0   832.5    0.00 
 239   13:00   0.86   72.0    40    3.8   121     6.1   832.5    0.00 
 239   13:10   0.24   72.3    40    2.9   119     6.1   832.4    0.00 
 239   13:20   0.63   72.4    37    1.4    30     3.8   832.3    0.00 
 239   13:30   0.16   73.0    37    1.9   110     3.9   832.2    0.00 
 239   13:40   0.62   73.8    36    1.5    78     4.0   832.1    0.00 
 239   13:50   0.79   74.8    34    2.7   210     5.9   832.0    0.00 
 239   14:00   0.77   73.8    36    4.3   153     7.7   831.9    0.00 
 239   14:10   0.71   74.9    33    3.4   191     6.7   831.8    0.00 
 239   14:20   0.61   74.7    33    3.3   162     6.8   831.7    0.00 
 239   14:30   0.68   73.9    34    2.9   133     5.8   831.7    0.00 
 239   14:40   0.39   73.2    35    2.6   125     5.4   831.6    0.00 
 239   14:50   0.50   74.4    33    1.5   124     4.2   831.7    0.00 
 239   15:00   0.62   74.3    32    2.4    95     4.5   831.7    0.00 
 239   15:10   0.61   74.6    33    2.8    80     7.7   831.6    0.00 
 239   15:20   0.22   73.2    36    3.2    62     5.6   831.5    0.00 
 239   15:30   0.07   71.7    36    3.2   106     5.3   831.5    0.00 
 239   15:40   0.49   72.2    42    4.0   111     6.6   831.7    0.00 
 239   15:50   0.29   73.1    39    3.8   110     6.9   831.7    0.00 
 239   16:00   0.45   73.5    40    3.4    66     7.0   831.7    0.00 
 239   16:10   0.43   73.9    36    4.0    67     6.1   831.7    0.00 
 239   16:20   0.37   73.9    34    3.7    78     6.7   831.8    0.00 
 239   16:30   0.34   74.6    32    1.9    97     4.4   831.8    0.00 
 239   16:40   0.31   75.0    32    1.3    93     2.7   831.8    0.00 
 239   16:50   0.28   74.9    30    2.3   114     4.3   831.7    0.00 
 239   17:00   0.23   74.7    32    1.4   116     2.3   831.7    0.00 
 239   17:10   0.19   75.1    31    1.2    19     3.1   831.7    0.00 
 239   17:20   0.16   73.9    33    3.5   325     6.1   831.6    0.00 
 239   17:30   0.13   71.9    34    4.2   334     5.3   831.6    0.00 
 239   17:40   0.10   72.2    36    1.7   343     2.8   831.6    0.00 
 239   17:50   0.04   71.7    43    0.6    29     1.4   831.6    0.00 
 239   18:00   0.01   69.1    42    2.4   278     6.4   831.8    0.00 
 239   18:10   0.01   64.5    44    4.6   266     5.4   831.9    0.00 
 239   18:20   0.01   62.0    50    4.9   276     5.6   832.0    0.00 
 239   18:30   0.00   60.5    56    3.9   273     5.3   832.0    0.00 
 239   18:40   0.00   59.4    60    2.4   266     3.4   832.0    0.00 
 239   18:50   0.00   59.6    57    3.5   280     4.2   832.0    0.00 
 239   19:00   0.00   58.6    59    3.4   268     4.5   832.0    0.00 
 239   19:10   0.00   57.8    62    4.2   282     5.2   832.1    0.00 
 239   19:20   0.00   56.9    64    4.3   297     4.8   832.1    0.00 
 239   19:30   0.00   56.7    67    3.9   305     4.8   832.1    0.00 
 239   19:40   0.00   54.5    74    2.5     6     4.3   832.1    0.00 
 239   19:50   0.00   53.1    76    3.4     4     4.7   832.2    0.00 
 239   20:00   0.00   53.3    75    3.4   359     4.2   832.2    0.00 
 239   20:10   0.00   55.1    64    3.6   325     4.2   832.2    0.00 
 239   20:20   0.00   55.7    64    3.4   306     4.3   832.2    0.00 
 239   20:30   0.00   53.4    72    3.6   339     5.8   832.2    0.00 
 239   20:40   0.00   52.1    77    1.6    83     4.7   832.3    0.00 
 239   20:50   0.00   53.1    70    1.9    51     3.2   832.2    0.00 
 239   21:00   0.00   52.2    73    2.4    39     3.6   832.2    0.00 
 239   21:10   0.00   50.7    76    2.6    14     4.2   832.3    0.00 
 239   21:20   0.00   51.5    73    1.5     6     3.9   832.2    0.00 
 239   21:30   0.00   51.4    71    2.9   346     4.1   832.1    0.00 
 239   21:40   0.00   52.5    67    3.9     2     5.6   832.1    0.00 
 239   21:50   0.00   53.9    62    3.3   340     4.5   832.0    0.00 
 239   22:00   0.00   51.8    70    2.8   354     4.1   832.0    0.00 
 239   22:10   0.00   50.8    75    3.1     9     4.6   832.0    0.00 

Return to Clover Valley graphs page.


Western Regional Climate Center,wrcc@dri.edu